Terminal Aerodrome Forecast
Issued by NWS Tampa Bay Area, FL

Home | Current Version | Previous Version | Text Only | Print | Product List | Glossary On
Versions: 1 2 3 4 5 6 7 8 9 10 11 12 13 14 15 16 17 18 19 20 21 22 23 24 25 26 27
609
FTUS42 KTBW 172100 AAA
TAFTPA
TAF AMD
KTPA 172100Z 1721/1818 04007KT P6SM VCTS SCT030CB BKN060
      TEMPO 1721/1723 2SM TSRA BKN030CB
     FM180200 VRB03KT P6SM FEW030 BKN250
     FM181500 23005KT P6SM FEW025 BKN250=

USA.gov is the U.S. government's official web portal to all federal, state and local government web resources and services.